Time;durP1;ratioP1;P1;durP2;ratioP2;P2;SDS_P1;SDS_P2;PMS_P1;PMS_P2;Temp;Humidity;BMP_temperature;BMP_pressure;BME280_temperature;BME280_humidity;BME280_pressure;Samples;Min_cycle;Max_cycle;Signal;HPM_P1;HPM_P2
2024/04/10 00:00:59;;;;;;;24.83;3.42;;;;;;;7.28;100.00;101264.28;5345353;26;20100;-91
2024/04/10 00:03:24;;;;;;;35.40;4.78;;;;;;;7.34;100.00;101265.78;5347273;26;20040;-92
2024/04/10 00:06:03;;;;;;;28.63;3.70;;;;;;;7.37;100.00;101264.00;5346884;26;19997;-91
2024/04/10 00:08:29;;;;;;;12.18;2.95;;;;;;;7.33;100.00;101264.13;5346849;26;19997;-91
2024/04/10 00:10:55;;;;;;;22.80;2.60;;;;;;;7.28;100.00;101270.22;5345188;26;19996;-91
2024/04/10 00:13:21;;;;;;;16.92;2.60;;;;;;;7.24;100.00;101257.53;5344843;26;20008;-90
2024/04/10 00:16:06;;;;;;;19.13;3.58;;;;;;;7.33;100.00;101264.97;5346747;26;20001;-90
2024/04/10 00:18:32;;;;;;;24.65;3.78;;;;;;;7.33;100.00;101264.13;5344850;26;20005;-90
2024/04/10 00:20:58;;;;;;;25.38;3.08;;;;;;;7.31;100.00;101269.31;5344839;26;20078;-91
2024/04/10 00:23:23;;;;;;;16.08;2.65;;;;;;;7.38;100.00;101280.22;5346575;26;20451;-91
2024/04/10 00:25:56;;;;;;;19.92;3.45;;;;;;;7.38;100.00;101275.94;5346879;26;20074;-91
2024/04/10 00:28:23;;;;;;;27.42;3.70;;;;;;;7.30;100.00;101285.59;5346209;26;20394;-90
2024/04/10 00:30:48;;;;;;;18.25;2.63;;;;;;;7.20;100.00;101282.47;5346479;26;20001;-91
2024/04/10 00:33:14;;;;;;;18.08;2.67;;;;;;;7.23;100.00;101284.09;5346695;26;20067;-90
2024/04/10 00:35:39;;;;;;;17.13;2.55;;;;;;;7.11;100.00;101277.59;5346501;26;20014;-90
2024/04/10 00:38:05;;;;;;;22.90;3.13;;;;;;;7.08;100.00;101285.41;5346506;26;20000;-92
2024/04/10 00:40:30;;;;;;;10.25;2.33;;;;;;;6.98;100.00;101282.25;5344863;26;20008;-91
2024/04/10 00:43:01;;;;;;;26.25;2.67;;;;;;;6.91;100.00;101285.91;5346213;26;20474;-92
2024/04/10 00:45:26;;;;;;;15.93;2.33;;;;;;;6.92;100.00;101281.59;5346492;26;20001;-92
2024/04/10 00:47:51;;;;;;;22.13;2.55;;;;;;;6.88;100.00;101283.41;5346300;26;20008;-92
2024/04/10 00:50:17;;;;;;;21.60;2.45;;;;;;;6.83;100.00;101280.97;5345957;26;20001;-91
2024/04/10 00:52:42;;;;;;;15.43;2.05;;;;;;;6.84;100.00;101279.25;5346264;26;20071;-91
2024/04/10 00:55:12;;;;;;;17.80;3.97;;;;;;;6.76;100.00;101291.47;5346258;26;19997;-92
2024/04/10 00:57:38;;;;;;;17.90;2.60;;;;;;;6.72;100.00;101289.84;5344344;26;20354;-91
2024/04/10 01:00:04;;;;;;;27.02;3.20;;;;;;;6.76;100.00;101292.31;5344537;26;20001;-91
2024/04/10 01:02:29;;;;;;;17.70;2.47;;;;;;;6.72;100.00;101288.13;5346216;26;20309;-91
2024/04/10 01:04:54;;;;;;;12.73;1.80;;;;;;;6.74;100.00;101291.50;5344307;26;20621;-91
2024/04/10 01:07:20;;;;;;;16.42;2.38;;;;;;;6.66;100.00;101288.31;5346019;26;20007;-91
2024/04/10 01:09:45;;;;;;;11.55;2.55;;;;;;;6.60;100.00;101291.03;5345760;26;20012;-92
2024/04/10 01:12:10;;;;;;;17.80;1.88;;;;;;;6.58;100.00;101287.66;5342534;26;20111;-91
2024/04/10 01:14:36;;;;;;;11.05;1.63;;;;;;;6.67;100.00;101296.84;5344222;26;20074;-91
2024/04/10 01:17:01;;;;;;;14.77;2.40;;;;;;;6.63;100.00;101296.94;5345793;26;20513;-91
2024/04/10 01:19:27;;;;;;;21.38;2.10;;;;;;;6.58;100.00;101301.34;5345819;26;19996;-91
2024/04/10 01:21:52;;;;;;;13.73;2.28;;;;;;;6.55;100.00;101303.13;5343713;26;20008;-91
2024/04/10 01:24:17;;;;;;;7.70;2.03;;;;;;;6.55;100.00;101305.72;5341466;26;20458;-91
2024/04/10 01:26:43;;;;;;;7.70;1.60;;;;;;;6.47;100.00;101294.81;5344817;26;20440;-91
2024/04/10 01:29:09;;;;;;;11.23;2.15;;;;;;;6.43;100.00;101310.25;5345211;26;19997;-91
2024/04/10 01:33:25;;;;;;;9.35;2.17;;;;;;;6.33;100.00;101319.09;5506942;25;20093;-90
2024/04/10 01:35:51;;;;;;;20.52;1.70;;;;;;;6.25;100.00;101317.63;5470806;26;20071;-90
2024/04/10 01:38:16;;;;;;;15.15;1.85;;;;;;;6.27;100.00;101310.69;5405992;26;19991;-90
2024/04/10 01:40:43;;;;;;;10.77;1.65;;;;;;;6.21;100.00;101314.28;5403110;26;20072;-90
2024/04/10 01:43:08;;;;;;;11.77;1.30;;;;;;;6.03;100.00;101301.94;5402999;26;20007;-91
2024/04/10 01:45:36;;;;;;;11.77;2.13;;;;;;;5.96;100.00;101303.78;5434468;26;19995;-90
2024/04/10 01:48:02;;;;;;;14.02;2.15;;;;;;;6.02;100.00;101313.03;5434608;26;19991;-90
2024/04/10 01:50:28;;;;;;;8.70;1.33;;;;;;;5.96;100.00;101309.75;5434425;26;19999;-90
2024/04/10 01:52:53;;;;;;;10.55;1.35;;;;;;;5.94;100.00;101315.78;5434465;26;19995;-90
2024/04/10 01:55:18;;;;;;;15.35;2.55;;;;;;;5.91;100.00;101306.44;5434093;26;19991;-90
2024/04/10 01:57:44;;;;;;;7.97;1.70;;;;;;;5.94;100.00;101306.38;5433743;26;20081;-91
2024/04/10 02:00:10;;;;;;;10.30;1.95;;;;;;;5.83;100.00;101302.34;5434021;26;20045;-91
2024/04/10 02:02:35;;;;;;;9.60;1.63;;;;;;;5.90;100.00;101299.63;5402398;26;20002;-90
2024/04/10 02:05:01;;;;;;;10.05;1.90;;;;;;;5.92;100.00;101295.28;5434033;26;20023;-91
2024/04/10 02:07:26;;;;;;;13.82;1.73;;;;;;;5.93;100.00;101304.69;5433915;26;20006;-90
2024/04/10 02:09:51;;;;;;;15.30;2.15;;;;;;;5.90;100.00;101309.88;5434162;26;20019;-89
2024/04/10 02:12:16;;;;;;;10.80;2.10;;;;;;;5.89;100.00;101302.22;5433877;26;20006;-90
2024/04/10 02:14:42;;;;;;;10.73;1.40;;;;;;;5.84;100.00;101309.19;5434186;26;20003;-90
2024/04/10 02:17:07;;;;;;;9.93;1.70;;;;;;;5.81;100.00;101302.41;5434056;26;20023;-90
2024/04/10 02:19:33;;;;;;;10.88;1.80;;;;;;;5.77;100.00;101303.34;5402515;26;20011;-90
2024/04/10 02:21:58;;;;;;;7.75;1.00;;;;;;;5.81;100.00;101304.13;5433911;26;20345;-89
2024/04/10 02:24:23;;;;;;;14.90;3.72;;;;;;;5.70;100.00;101306.94;5402153;26;20010;-90
2024/04/10 02:26:49;;;;;;;9.45;1.23;;;;;;;5.67;100.00;101307.00;5402035;26;20445;-92
2024/04/10 02:29:14;;;;;;;16.20;1.70;;;;;;;5.51;100.00;101307.38;5402276;26;19992;-89
2024/04/10 02:31:40;;;;;;;10.35;1.25;;;;;;;5.55;100.00;101303.84;5433865;26;19995;-90
2024/04/10 02:34:05;;;;;;;20.27;1.40;;;;;;;5.53;100.00;101305.59;5433232;26;20453;-90
2024/04/10 02:36:31;;;;;;;4.78;0.98;;;;;;;5.55;100.00;101308.97;5433729;26;19999;-90
2024/04/10 02:38:56;;;;;;;13.73;2.03;;;;;;;5.53;100.00;101300.47;5433793;26;19995;-90
2024/04/10 02:41:21;;;;;;;9.38;1.60;;;;;;;5.48;100.00;101302.28;5433526;26;20003;-90
2024/04/10 02:43:47;;;;;;;7.43;1.42;;;;;;;5.48;100.00;101317.66;5422797;26;19991;-89
2024/04/10 02:46:15;;;;;;;11.20;1.92;;;;;;;5.55;100.00;101314.09;5418208;26;19999;-91
2024/04/10 02:48:41;;;;;;;10.32;1.30;;;;;;;5.51;100.00;101312.50;5387335;26;20446;-92
2024/04/10 02:51:06;;;;;;;7.90;1.95;;;;;;;5.49;100.00;101303.16;5418525;26;19998;-89
2024/04/10 02:53:32;;;;;;;9.20;1.40;;;;;;;5.48;100.00;101307.41;5418387;26;19999;-92
2024/04/10 02:55:57;;;;;;;8.52;1.75;;;;;;;5.49;100.00;101319.38;5418686;26;20068;-92
2024/04/10 02:58:23;;;;;;;7.82;1.63;;;;;;;5.38;100.00;101315.34;5418498;26;19995;-90
2024/04/10 03:00:50;;;;;;;8.77;1.77;;;;;;;5.40;100.00;101313.59;5386802;26;19995;-90
2024/04/10 03:03:16;;;;;;;9.98;2.97;;;;;;;5.36;100.00;101307.69;5386690;26;20004;-90
2024/04/10 03:05:44;;;;;;;11.45;1.65;;;;;;;5.45;100.00;101319.47;5386414;26;19992;-90
2024/04/10 03:08:10;;;;;;;13.80;1.58;;;;;;;5.39;100.00;101311.91;5386565;26;20102;-90
2024/04/10 03:10:36;;;;;;;8.98;1.02;;;;;;;5.36;100.00;101305.13;5386833;26;20068;-90
2024/04/10 03:13:02;;;;;;;7.75;1.33;;;;;;;5.43;100.00;101319.47;5385874;26;20023;-89
2024/04/10 03:15:27;;;;;;;10.65;2.67;;;;;;;5.42;100.00;101316.97;5417654;26;19992;-89
2024/04/10 03:17:53;;;;;;;11.90;1.70;;;;;;;5.45;100.00;101307.50;5417795;26;20407;-89
2024/04/10 03:20:22;;;;;;;11.02;1.77;;;;;;;5.64;100.00;101310.50;5417870;26;20006;-91
2024/04/10 03:22:47;;;;;;;12.85;1.80;;;;;;;5.84;100.00;101316.88;5417696;26;19999;-92
2024/04/10 03:25:14;;;;;;;12.63;1.73;;;;;;;5.89;100.00;101321.00;5386517;26;20007;-93
2024/04/10 03:27:43;;;;;;;7.85;1.92;;;;;;;5.92;100.00;101318.34;5386144;26;19995;-92
2024/04/10 03:30:10;;;;;;;12.20;2.05;;;;;;;6.03;100.00;101322.44;5385936;26;20111;-92
2024/04/10 03:32:37;;;;;;;20.63;1.70;;;;;;;6.04;100.00;101314.69;5417346;26;20007;-91
2024/04/10 03:35:04;;;;;;;14.27;2.40;;;;;;;6.09;100.00;101323.09;5417371;26;19999;-92
2024/04/10 03:37:29;;;;;;;17.73;3.13;;;;;;;6.13;100.00;101331.56;5385889;26;20011;-89
2024/04/10 03:39:55;;;;;;;17.50;2.95;;;;;;;6.25;100.00;101335.56;5385501;26;20007;-90
2024/04/10 03:42:20;;;;;;;14.38;1.85;;;;;;;6.13;100.00;101331.56;5385847;26;20456;-89
2024/04/10 03:44:45;;;;;;;9.63;1.85;;;;;;;6.08;100.00;101323.16;5417167;26;20437;-90
2024/04/10 03:47:11;;;;;;;16.55;2.03;;;;;;;6.19;100.00;101332.28;5385801;26;19995;-90
2024/04/10 03:49:36;;;;;;;11.52;2.80;;;;;;;6.11;100.00;101325.63;5416828;26;20002;-89
2024/04/10 03:52:02;;;;;;;12.65;1.73;;;;;;;6.13;100.00;101322.16;5416798;26;20007;-90
2024/04/10 03:54:27;;;;;;;13.98;1.77;;;;;;;6.08;100.00;101324.00;5385401;26;20333;-90
2024/04/10 03:56:53;;;;;;;11.40;1.90;;;;;;;6.19;100.00;101333.97;5416863;26;20000;-90
2024/04/10 03:59:19;;;;;;;14.82;1.80;;;;;;;6.16;100.00;101321.25;5417024;26;19991;-89
2024/04/10 04:01:45;;;;;;;15.18;2.17;;;;;;;6.25;100.00;101331.28;5416834;26;20469;-89
2024/04/10 04:04:10;;;;;;;12.27;1.92;;;;;;;6.24;100.00;101334.69;5385457;26;20093;-90
2024/04/10 04:06:35;;;;;;;11.20;1.65;;;;;;;6.21;100.00;101340.75;5416571;26;20011;-90
2024/04/10 04:09:00;;;;;;;9.98;1.70;;;;;;;6.17;100.00;101328.91;5416818;26;19996;-90
2024/04/10 04:11:27;;;;;;;16.17;2.03;;;;;;;6.25;100.00;101336.41;5416346;26;20002;-90
2024/04/10 04:13:52;;;;;;;12.57;2.25;;;;;;;6.33;100.00;101339.59;5417021;26;19992;-90
2024/04/10 04:16:18;;;;;;;13.00;1.95;;;;;;;6.27;100.00;101334.63;5416684;26;20005;-90
2024/04/10 04:18:43;;;;;;;18.95;2.03;;;;;;;6.27;100.00;101334.63;5385370;26;20006;-91
2024/04/10 04:21:08;;;;;;;14.95;2.63;;;;;;;6.28;100.00;101335.47;5385164;26;20068;-90
2024/04/10 04:23:35;;;;;;;13.77;2.00;;;;;;;6.34;100.00;101349.00;5385270;26;20011;-89
2024/04/10 04:26:00;;;;;;;8.95;1.52;;;;;;;6.33;100.00;101344.72;5385004;26;20080;-90
2024/04/10 04:28:26;;;;;;;16.45;1.83;;;;;;;6.37;100.00;101348.06;5385537;26;20011;-90
2024/04/10 04:30:51;;;;;;;15.70;1.83;;;;;;;6.39;100.00;101344.59;5384809;26;20023;-90
2024/04/10 04:33:18;;;;;;;16.52;1.90;;;;;;;6.41;100.00;101350.53;5416571;26;20007;-90
2024/04/10 04:35:43;;;;;;;18.77;1.92;;;;;;;6.48;100.00;101350.34;5384967;26;19995;-91
2024/04/10 04:38:09;;;;;;;17.13;2.20;;;;;;;6.44;100.00;101344.47;5384584;26;20018;-89
2024/04/10 04:40:35;;;;;;;16.48;2.22;;;;;;;6.46;100.00;101339.28;5384871;26;20007;-89
2024/04/10 04:43:10;;;;;;;7.43;1.17;;;;;;;6.45;100.00;101335.03;5384851;26;20000;-90
2024/04/10 04:45:37;;;;;;;17.98;3.95;;;;;;;6.52;100.00;101341.69;5384885;26;20079;-90
2024/04/10 04:48:04;;;;;;;12.15;2.13;;;;;;;6.48;100.00;101340.09;5416059;26;19996;-90
2024/04/10 04:50:29;;;;;;;10.70;1.60;;;;;;;6.51;100.00;101332.31;5415970;26;20457;-93
2024/04/10 04:52:55;;;;;;;10.15;2.17;;;;;;;6.51;100.00;101352.81;5384318;26;20027;-90
2024/04/10 04:55:20;;;;;;;16.80;1.85;;;;;;;6.53;100.00;101340.81;5415994;26;20446;-89
2024/04/10 04:57:45;;;;;;;13.77;1.80;;;;;;;6.53;100.00;101340.81;5416174;26;19995;-90
2024/04/10 05:00:11;;;;;;;16.92;2.05;;;;;;;6.57;100.00;101345.81;5415891;26;20433;-90
2024/04/10 05:02:40;;;;;;;10.45;1.25;;;;;;;6.59;100.00;101338.09;5384586;26;20341;-89
2024/04/10 05:05:16;;;;;;;12.88;2.00;;;;;;;6.63;100.00;101343.09;5415723;26;19999;-90
2024/04/10 05:07:43;;;;;;;18.23;2.15;;;;;;;6.68;100.00;101342.97;5415292;26;20453;-90
2024/04/10 05:10:09;;;;;;;17.92;2.38;;;;;;;6.65;100.00;101337.91;5415904;26;20412;-89
2024/04/10 05:12:38;;;;;;;10.15;1.63;;;;;;;6.65;100.00;101340.47;5384173;26;20014;-90
2024/04/10 05:15:06;;;;;;;11.07;1.65;;;;;;;6.75;100.00;101359.88;5415631;26;20333;-89
2024/04/10 05:17:31;;;;;;;13.85;1.67;;;;;;;6.67;100.00;101351.56;5415389;26;19996;-90
2024/04/10 05:19:57;;;;;;;12.77;4.38;;;;;;;6.75;100.00;101362.44;5415460;26;20007;-90
2024/04/10 05:22:22;;;;;;;11.35;2.17;;;;;;;6.73;100.00;101356.53;5415683;26;20007;-89
2024/04/10 05:24:48;;;;;;;26.58;2.80;;;;;;;6.82;100.00;101371.66;5415793;26;20010;-91
2024/04/10 05:27:25;;;;;;;13.82;2.47;;;;;;;6.87;100.00;101371.53;5384216;26;20377;-91
2024/04/10 05:29:54;;;;;;;16.85;2.10;;;;;;;6.83;100.00;101370.78;5384208;26;19999;-91
2024/04/10 05:32:20;;;;;;;14.45;2.10;;;;;;;6.84;100.00;101374.19;5415357;26;20036;-92
2024/04/10 05:34:45;;;;;;;13.30;1.83;;;;;;;6.83;100.00;101375.94;5415290;26;20000;-92
2024/04/10 05:37:10;;;;;;;19.92;1.75;;;;;;;6.85;100.00;101369.03;5383988;26;20032;-92
2024/04/10 05:39:36;;;;;;;11.63;1.95;;;;;;;6.93;100.00;101376.50;5415427;26;19995;-92
2024/04/10 05:42:06;;;;;;;13.82;2.40;;;;;;;6.96;100.00;101380.72;5415207;26;20003;-91
2024/04/10 05:44:33;;;;;;;19.47;1.97;;;;;;;6.96;100.00;101381.56;5383901;26;20437;-92
2024/04/10 05:47:00;;;;;;;11.25;1.92;;;;;;;7.02;100.00;101390.81;5415176;26;20269;-91
2024/04/10 05:49:25;;;;;;;10.52;2.03;;;;;;;7.00;100.00;101387.47;5384189;26;20379;-92
2024/04/10 05:51:51;;;;;;;19.20;2.17;;;;;;;7.10;100.00;101382.91;5415643;26;19996;-92
2024/04/10 05:54:16;;;;;;;12.80;1.60;;;;;;;7.11;100.00;101395.69;5383882;26;20031;-92
2024/04/10 05:56:41;;;;;;;9.18;1.55;;;;;;;7.10;100.00;101388.06;5415351;26;20011;-92
2024/04/10 05:59:08;;;;;;;14.98;3.28;;;;;;;7.05;100.00;101386.44;5414895;26;19999;-91
2024/04/10 06:01:34;;;;;;;10.90;1.77;;;;;;;7.15;100.00;101387.03;5415326;26;20000;-92
2024/04/10 06:03:59;;;;;;;13.05;2.20;;;;;;;7.23;100.00;101381.69;5383977;26;20370;-91
2024/04/10 06:06:25;;;;;;;11.80;2.72;;;;;;;7.24;100.00;101375.66;5383790;26;20010;-91
2024/04/10 06:08:51;;;;;;;19.17;1.95;;;;;;;7.14;100.00;101369.09;5384177;26;20003;-92
2024/04/10 06:11:17;;;;;;;19.90;1.95;;;;;;;7.22;100.00;101378.28;5415329;26;19996;-92
2024/04/10 06:13:47;;;;;;;16.55;2.30;;;;;;;7.38;100.00;101377.81;5415525;26;20067;-92
2024/04/10 06:16:12;;;;;;;19.45;1.65;;;;;;;7.57;100.00;101375.56;5415098;26;20071;-92
2024/04/10 06:18:38;;;;;;;12.02;1.63;;;;;;;7.62;100.00;101374.53;5416060;26;20379;-91
2024/04/10 06:21:04;;;;;;;22.17;2.10;;;;;;;7.79;100.00;101384.28;5418500;26;19999;-92
2024/04/10 06:23:31;;;;;;;11.98;1.98;;;;;;;7.93;100.00;101382.16;5418380;26;20010;-92
2024/04/10 06:25:57;;;;;;;21.25;3.25;;;;;;;7.89;100.00;101369.44;5418165;26;19996;-92
2024/04/10 06:28:25;;;;;;;13.90;1.98;;;;;;;8.03;100.00;101382.69;5386774;26;19999;-91
2024/04/10 06:31:02;;;;;;;12.85;1.75;;;;;;;8.10;100.00;101385.91;5385790;26;19999;-91
2024/04/10 06:33:27;;;;;;;29.98;1.95;;;;;;;8.03;100.00;101387.84;5418450;26;20003;-92
2024/04/10 06:35:53;;;;;;;19.33;1.60;;;;;;;8.01;100.00;101389.63;5386883;26;20449;-91
2024/04/10 06:38:18;;;;;;;13.07;2.03;;;;;;;8.11;100.00;101391.00;5417402;26;20333;-92
2024/04/10 06:40:57;;;;;;;12.43;1.83;;;;;;;8.18;100.00;101391.66;5386511;26;20392;-92
2024/04/10 06:43:22;;;;;;;13.68;2.25;;;;;;;8.13;100.00;101373.78;5417285;26;20015;-91
2024/04/10 06:45:59;;;;;;;14.68;1.85;;;;;;;8.24;100.00;101400.88;5417952;26;20000;-91
2024/04/10 06:48:25;;;;;;;13.45;2.17;;;;;;;8.33;100.00;101398.84;5416879;26;20441;-91
2024/04/10 06:51:00;;;;;;;18.65;1.67;;;;;;;8.30;100.00;101390.41;5418166;26;20469;-92
2024/04/10 06:53:26;;;;;;;26.23;2.25;;;;;;;8.36;100.00;101393.63;5418169;26;20008;-94
2024/04/10 06:55:56;;;;;;;18.17;1.92;;;;;;;8.28;100.00;101397.34;5387662;26;20084;-94
2024/04/10 06:58:23;;;;;;;13.65;1.95;;;;;;;8.36;100.00;101395.34;5388256;26;19999;-94
2024/04/10 07:00:59;;;;;;;17.05;2.47;;;;;;;8.30;100.00;101400.72;5386413;26;20003;-94
2024/04/10 07:03:29;;;;;;;11.50;2.28;;;;;;;8.33;100.00;101385.16;5386568;26;20012;-94
2024/04/10 07:06:15;;;;;;;13.43;2.42;;;;;;;8.25;100.00;101375.13;5386314;26;20000;-94
2024/04/10 07:08:46;;;;;;;12.23;1.88;;;;;;;8.34;100.00;101382.56;5388384;26;20007;-91
2024/04/10 07:11:17;;;;;;;15.10;2.42;;;;;;;8.29;100.00;101373.28;5386118;26;20339;-89
2024/04/10 07:13:46;;;;;;;27.00;2.37;;;;;;;8.30;100.00;101385.28;5416859;26;20012;-90
2024/04/10 07:16:12;;;;;;;12.20;2.90;;;;;;;8.38;100.00;101383.28;5416727;26;20010;-91
2024/04/10 07:18:37;;;;;;;12.93;2.83;;;;;;;8.39;100.00;101377.25;5385673;26;19995;-90
2024/04/10 07:21:08;;;;;;;12.40;1.77;;;;;;;8.44;100.00;101388.25;5416966;26;19999;-91
2024/04/10 07:23:38;;;;;;;16.08;3.08;;;;;;;8.40;100.00;101381.53;5385338;26;20072;-90
2024/04/10 07:26:07;;;;;;;18.13;4.82;;;;;;;8.55;100.00;101375.03;5414027;26;19996;-91
2024/04/10 07:28:32;;;;;;;13.52;1.95;;;;;;;8.52;100.00;101363.09;5413661;26;20011;-91
2024/04/10 07:30:58;;;;;;;10.20;1.85;;;;;;;8.52;100.00;101360.53;5382548;26;20318;-89
2024/04/10 07:33:23;;;;;;;15.35;2.00;;;;;;;8.66;100.00;101361.81;5416034;26;19991;-91
2024/04/10 07:35:49;;;;;;;19.33;2.83;;;;;;;8.79;100.00;101369.03;5416763;26;20010;-90
2024/04/10 07:38:15;;;;;;;21.23;2.50;;;;;;;8.78;100.00;101356.25;5416923;26;19998;-91
2024/04/10 07:40:51;;;;;;;17.02;2.67;;;;;;;8.87;100.00;101361.03;5416849;26;20006;-90
2024/04/10 07:43:16;;;;;;;16.48;2.55;;;;;;;9.13;100.00;101360.09;5416669;26;20002;-89
2024/04/10 07:45:41;;;;;;;26.38;3.60;;;;;;;9.20;100.00;101368.44;5415689;26;19995;-88
2024/04/10 07:48:07;;;;;;;21.27;2.47;;;;;;;9.41;100.00;101371.94;5416916;26;19991;-90
2024/04/10 07:50:32;;;;;;;24.95;3.30;;;;;;;9.60;100.00;101377.25;5384979;26;20011;-89
2024/04/10 07:52:57;;;;;;;24.98;3.42;;;;;;;9.36;100.00;101374.72;5415500;26;19999;-88
2024/04/10 07:55:23;;;;;;;25.23;3.45;;;;;;;9.47;100.00;101376.06;5416317;26;20085;-89
2024/04/10 07:57:48;;;;;;;29.70;2.92;;;;;;;9.92;100.00;101377.75;5384300;26;20003;-89
2024/04/10 08:00:14;;;;;;;16.77;3.05;;;;;;;10.01;100.00;101382.53;5416281;26;20418;-92
2024/04/10 08:02:39;;;;;;;23.13;2.42;;;;;;;9.83;100.00;101384.13;5386031;26;19995;-92
2024/04/10 08:05:05;;;;;;;11.70;1.80;;;;;;;9.83;100.00;101384.13;5386341;26;20018;-95
2024/04/10 08:07:36;;;;;;;28.67;5.55;;;;;;;9.81;100.00;101396.22;5386232;26;19999;-95
2024/04/10 08:10:03;;;;;;;25.75;3.55;;;;;;;9.69;100.00;101391.53;5386432;26;20004;-94
2024/04/10 08:12:29;;;;;;;23.27;3.03;;;;;;;9.58;100.00;101399.66;5385250;26;19999;-95
2024/04/10 08:14:54;;;;;;;22.83;2.53;;;;;;;9.33;100.00;101400.59;5387252;26;20002;-94
2024/04/10 08:17:20;;;;;;;20.75;2.72;;;;;;;9.31;100.00;101386.91;5388207;26;20018;-95
2024/04/10 08:19:46;;;;;;;20.02;3.17;;;;;;;9.31;100.00;101375.78;5387469;26;19996;-93
2024/04/10 08:22:12;;;;;;;20.23;2.90;;;;;;;9.54;100.00;101380.91;5387101;26;20072;-94
2024/04/10 08:24:37;;;;;;;23.70;3.10;;;;;;;9.50;100.00;101373.34;5387140;26;19996;-94
2024/04/10 08:27:03;;;;;;;29.48;3.63;;;;;;;9.42;100.00;101374.47;5386763;26;20069;-94
2024/04/10 08:29:28;;;;;;;27.13;3.10;;;;;;;9.41;100.00;101362.50;5386093;26;19999;-94
2024/04/10 08:31:54;;;;;;;32.13;4.15;;;;;;;9.56;100.00;101368.81;5386820;26;20449;-93
2024/04/10 08:34:20;;;;;;;18.63;4.03;;;;;;;9.74;100.00;101369.00;5386589;26;19995;-92
2024/04/10 08:36:45;;;;;;;19.35;2.53;;;;;;;9.68;100.00;101372.66;5386813;26;20023;-94
2024/04/10 08:39:11;;;;;;;21.48;2.65;;;;;;;9.72;100.00;101353.56;5386548;26;19991;-92
2024/04/10 08:41:39;;;;;;;16.73;2.42;;;;;;;9.80;100.00;101338.66;5385726;26;20355;-93
2024/04/10 08:44:06;;;;;;;24.33;3.58;;;;;;;9.85;100.00;101352.22;5386690;26;19999;-94
2024/04/10 08:46:34;;;;;;;29.42;3.35;;;;;;;9.89;100.00;101346.94;5386365;26;20036;-94
2024/04/10 08:49:02;;;;;;;21.13;2.63;;;;;;;10.08;100.00;101353.03;5387239;26;20399;-94
2024/04/10 08:51:30;;;;;;;21.85;3.05;;;;;;;10.04;100.00;101347.13;5386599;26;20449;-94
2024/04/10 08:53:57;;;;;;;16.38;2.17;;;;;;;9.98;100.00;101347.41;5386849;26;20014;-93
2024/04/10 08:56:23;;;;;;;20.00;2.60;;;;;;;9.93;100.00;101358.81;5387676;26;20000;-93
2024/04/10 08:58:48;;;;;;;25.27;2.97;;;;;;;9.93;100.00;101363.97;5386453;26;20010;-93
2024/04/10 09:01:33;;;;;;;22.85;5.60;;;;;;;10.34;100.00;101357.16;5386729;26;20337;-94
2024/04/10 09:04:08;;;;;;;21.42;3.95;;;;;;;10.31;100.00;101356.41;5386665;26;20425;-94
2024/04/10 09:06:34;;;;;;;21.42;3.63;;;;;;;10.39;100.00;101352.63;5387297;26;19995;-96
2024/04/10 09:09:03;;;;;;;18.55;2.58;;;;;;;10.41;100.00;101343.09;5386688;26;20093;-95
2024/04/10 09:11:34;;;;;;;21.15;3.25;;;;;;;10.26;100.00;101352.25;5387990;26;19995;-94
2024/04/10 09:14:10;;;;;;;16.17;2.33;;;;;;;10.17;100.00;101346.63;5388119;26;20359;-94
2024/04/10 09:16:37;;;;;;;20.02;2.88;;;;;;;10.19;100.00;101340.53;5388603;26;20004;-94
2024/04/10 09:19:13;;;;;;;21.70;3.13;;;;;;;10.28;100.00;101350.47;5387350;26;20007;-95
2024/04/10 09:21:54;;;;;;;17.88;3.05;;;;;;;10.38;100.00;101324.28;5386822;26;19996;-93
2024/04/10 09:24:29;;;;;;;18.83;3.42;;;;;;;10.31;100.00;101307.41;5387369;26;19996;-94
2024/04/10 09:26:56;;;;;;;15.00;3.70;;;;;;;10.49;100.00;101322.09;5390140;26;19999;-95
2024/04/10 09:29:30;;;;;;;12.88;2.72;;;;;;;10.61;100.00;101321.56;5386926;26;20076;-94
2024/04/10 09:32:04;;;;;;;20.50;2.75;;;;;;;10.45;100.00;101321.38;5391957;26;19996;-93
2024/04/10 09:34:30;;;;;;;14.13;2.72;;;;;;;10.59;100.00;101328.53;5387729;26;20010;-93
2024/04/10 09:36:55;;;;;;;18.20;3.40;;;;;;;10.54;100.00;101309.00;5390943;26;20007;-94
2024/04/10 09:39:25;;;;;;;17.02;2.55;;;;;;;10.44;100.00;101321.47;5388763;26;19995;-94
2024/04/10 09:42:00;;;;;;;14.18;2.00;;;;;;;10.39;100.00;101331.16;5388984;26;20003;-95
2024/04/10 09:44:32;;;;;;;16.23;2.50;;;;;;;10.25;100.00;101342.00;5386694;26;20000;-94
2024/04/10 09:46:59;;;;;;;14.02;2.47;;;;;;;10.23;100.00;101334.31;5386712;26;20007;-94
2024/04/10 09:49:35;;;;;;;16.98;1.92;;;;;;;10.34;100.00;101346.81;5385683;26;20112;-94
2024/04/10 09:52:01;;;;;;;18.65;2.17;;;;;;;10.35;100.00;101350.25;5385229;26;19999;-94
2024/04/10 09:54:27;;;;;;;16.58;2.42;;;;;;;10.35;100.00;101351.06;5388222;26;20445;-93
2024/04/10 09:56:56;;;;;;;14.02;2.22;;;;;;;10.32;100.00;101329.72;5388218;26;20000;-93
2024/04/10 09:59:22;;;;;;;11.70;2.15;;;;;;;10.18;100.00;101333.69;5388192;26;20441;-95
2024/04/10 10:01:48;;;;;;;11.65;1.95;;;;;;;10.32;100.00;101330.56;5388206;26;20069;-94
2024/04/10 10:04:14;;;;;;;14.45;2.47;;;;;;;10.22;100.00;101313.75;5388191;26;20007;-92
2024/04/10 10:06:39;;;;;;;11.23;1.63;;;;;;;10.26;100.00;101325.63;5388123;26;20429;-92
2024/04/10 10:09:06;;;;;;;11.90;1.98;;;;;;;10.47;100.00;101327.31;5388038;26;20503;-93
2024/04/10 10:11:32;;;;;;;12.15;2.42;;;;;;;10.54;100.00;101327.91;5387818;26;20003;-94
2024/04/10 10:13:58;;;;;;;10.65;1.38;;;;;;;10.62;100.00;101325.00;5387932;26;19996;-93
2024/04/10 10:16:24;;;;;;;18.80;2.80;;;;;;;10.62;100.00;101328.41;5388168;26;20011;-93
2024/04/10 10:18:57;;;;;;;12.95;1.90;;;;;;;10.47;100.00;101332.47;5387895;26;20000;-93
2024/04/10 10:21:23;;;;;;;11.98;2.15;;;;;;;10.52;100.00;101337.47;5387657;26;20006;-94
2024/04/10 10:23:58;;;;;;;13.43;2.47;;;;;;;10.32;100.00;101352.97;5387754;26;19999;-94
2024/04/10 10:26:24;;;;;;;13.88;1.70;;;;;;;10.47;100.00;101340.22;5387658;26;20039;-96
2024/04/10 10:28:49;;;;;;;9.38;1.77;;;;;;;10.57;100.00;101329.53;5387410;26;20442;-94
2024/04/10 10:31:19;;;;;;;12.05;1.40;;;;;;;10.53;100.00;101328.78;5387920;26;20006;-94
2024/04/10 10:33:44;;;;;;;13.88;2.63;;;;;;;10.62;100.00;101327.56;5388914;26;20004;-95
2024/04/10 10:36:10;;;;;;;13.82;1.73;;;;;;;10.51;100.00;101335.78;5390615;26;20004;-93
2024/04/10 10:38:35;;;;;;;13.30;1.83;;;;;;;10.48;100.00;101330.72;5390724;26;20041;-96
2024/04/10 10:41:11;;;;;;;10.40;1.75;;;;;;;10.60;100.00;101319.06;5389028;26;20006;-95
2024/04/10 10:43:37;;;;;;;15.40;2.78;;;;;;;10.59;100.00;101333.72;5392389;26;19999;-95
2024/04/10 10:46:10;;;;;;;16.50;3.60;;;;;;;10.55;100.00;101319.25;5391516;26;20065;-96
2024/04/10 10:48:38;;;;;;;10.18;1.40;;;;;;;10.43;100.00;101317.19;5395383;26;20007;-96
2024/04/10 10:51:04;;;;;;;12.52;2.38;;;;;;;10.43;100.00;101317.19;5390758;26;20020;-96
2024/04/10 10:53:30;;;;;;;10.07;1.73;;;;;;;10.44;100.00;101326.63;5393056;26;20068;-96
2024/04/10 10:55:59;;;;;;;9.27;1.05;;;;;;;10.49;100.00;101315.19;5391953;26;20004;-96
2024/04/10 10:58:25;;;;;;;12.43;1.55;;;;;;;10.41;100.00;101308.69;5393130;26;20438;-96
2024/04/10 11:00:51;;;;;;;11.82;1.38;;;;;;;10.20;100.00;101321.56;5397686;26;19995;-96
2024/04/10 11:03:16;;;;;;;11.30;1.73;;;;;;;10.24;100.00;101325.69;5397863;26;19996;-96
2024/04/10 11:05:44;;;;;;;9.93;1.95;;;;;;;10.25;100.00;101340.25;5399236;26;20014;-96
2024/04/10 11:08:09;;;;;;;5.63;1.40;;;;;;;10.25;100.00;101332.53;5363193;26;20068;-96
2024/04/10 11:10:35;;;;;;;8.13;1.17;;;;;;;10.27;100.00;101351.38;5390484;26;19995;-95
2024/04/10 11:13:02;;;;;;;9.85;1.17;;;;;;;10.33;100.00;101346.88;5389373;26;20010;-96
2024/04/10 11:15:28;;;;;;;4.35;0.80;;;;;;;10.27;100.00;101343.63;5388347;26;19999;-95
2024/04/10 11:18:02;;;;;;;6.55;2.08;;;;;;;10.23;100.00;101311.09;5389761;26;20006;-95